createdAt,value
2016-02-23T00:00:33.813Z,70.79
2016-02-23T00:01:33.831Z,70.79
2016-02-23T00:02:33.834Z,70.61
2016-02-23T00:03:33.852Z,70.42
2016-02-23T00:04:33.870Z,70.42
2016-02-23T00:05:33.897Z,70.51
2016-02-23T00:06:33.916Z,70.42
2016-02-23T00:07:33.933Z,70.42
2016-02-23T00:08:33.937Z,70.7
2016-02-23T00:09:33.955Z,70.42
2016-02-23T00:10:33.972Z,71.08
2016-02-23T00:11:33.992Z,70.99
2016-02-23T00:12:34.010Z,71.08
2016-02-23T00:13:34.028Z,71.08
2016-02-23T00:14:34.046Z,71.08
2016-02-23T00:15:34.065Z,71.18
2016-02-23T00:16:34.083Z,71.27
2016-02-23T00:17:34.085Z,71.08
2016-02-23T00:18:34.119Z,70.61
2016-02-23T00:19:34.138Z,70.42
2016-02-23T00:20:34.141Z,70.51
2016-02-23T00:21:34.155Z,70.51
2016-02-23T00:22:34.162Z,71.27
2016-02-23T00:23:34.169Z,70.61
2016-02-23T00:24:34.176Z,70.42
2016-02-23T00:25:34.183Z,70.42
2016-02-23T00:26:34.193Z,70.51
2016-02-23T00:27:34.206Z,70.79
2016-02-23T00:28:34.221Z,70.99
2016-02-23T00:29:34.236Z,71.08
2016-02-23T00:30:34.250Z,70.99
2016-02-23T00:31:34.265Z,71.08
2016-02-23T00:32:34.282Z,71.08
2016-02-23T00:33:34.284Z,71.27
2016-02-23T00:34:34.301Z,70.61
2016-02-23T00:35:34.318Z,70.51
2016-02-23T00:36:34.334Z,71.08
2016-02-23T00:37:34.352Z,70.89
2016-02-23T00:38:34.370Z,70.51
2016-02-23T00:39:34.388Z,70.7
2016-02-23T00:40:34.405Z,70.32
2016-02-23T00:41:34.423Z,70.7
2016-02-23T00:42:34.432Z,70.51
2016-02-23T00:43:34.451Z,70.32
2016-02-23T00:44:34.469Z,70.13
2016-02-23T00:45:34.488Z,70.42
2016-02-23T00:46:34.506Z,70.23
2016-02-23T00:47:34.524Z,70.51
2016-02-23T00:48:34.543Z,70.61
2016-02-23T00:49:34.545Z,70.79
2016-02-23T00:50:34.563Z,70.79
2016-02-23T00:51:34.581Z,70.89
2016-02-23T00:52:34.600Z,70.7
2016-02-23T00:53:34.619Z,70.51
2016-02-23T00:54:34.653Z,70.61
2016-02-23T00:55:34.655Z,71.08
2016-02-23T00:56:34.674Z,70.79
2016-02-23T00:57:34.692Z,70.79
2016-02-23T00:58:34.710Z,70.89
2016-02-23T00:59:34.728Z,70.61
2016-02-23T01:00:34.731Z,70.61
2016-02-23T01:01:34.765Z,70.61
2016-02-23T01:02:34.768Z,71.37
2016-02-23T01:03:34.802Z,71.37
2016-02-23T01:04:34.820Z,71.18
2016-02-23T01:05:34.823Z,71.08
2016-02-23T01:06:34.841Z,70.99
2016-02-23T01:07:34.859Z,70.99
2016-02-23T01:08:34.877Z,71.18
2016-02-23T01:09:34.896Z,71.66
2016-02-23T01:10:34.914Z,71.37
2016-02-23T01:11:34.933Z,71.08
2016-02-23T01:12:34.951Z,71.18
2016-02-23T01:13:34.953Z,71.08
2016-02-23T01:14:34.972Z,71.27
2016-02-23T01:15:35.021Z,71.46
2016-02-23T01:16:35.009Z,71.66
2016-02-23T01:17:35.026Z,71.37
2016-02-23T01:18:35.045Z,71.37
2016-02-23T01:19:35.064Z,70.7
2016-02-23T01:20:35.082Z,71.04
2016-02-23T01:21:35.084Z,70.99
2016-02-23T01:22:35.103Z,70.99
2016-02-23T01:23:35.121Z,70.89
2016-02-23T01:24:35.140Z,71.08
2016-02-23T01:25:35.158Z,71.04
2016-02-23T01:26:35.175Z,71.37
2016-02-23T01:27:35.194Z,70.7
2016-02-23T01:28:35.213Z,70.76
2016-02-23T01:29:35.231Z,70.61
2016-02-23T01:30:35.233Z,70.51
2016-02-23T01:31:35.268Z,70.38
2016-02-23T01:32:35.271Z,70.95
2016-02-23T01:33:35.289Z,71.18
2016-02-23T01:34:35.307Z,70.99
2016-02-23T01:35:35.324Z,70.86
2016-02-23T01:36:35.344Z,71.33
2016-02-23T01:37:35.362Z,71.43
2016-02-23T01:38:35.380Z,71.37
2016-02-23T01:39:35.399Z,71.37
2016-02-23T01:40:35.417Z,71.52
2016-02-23T01:41:35.420Z,71.62
2016-02-23T01:42:35.438Z,71.43
2016-02-23T01:43:35.456Z,71.37
2016-02-23T01:44:35.474Z,71.52
2016-02-23T01:45:35.493Z,71.43
2016-02-23T01:46:35.511Z,71.52
2016-02-23T01:47:35.529Z,71.62
2016-02-23T01:48:35.548Z,70.67
2016-02-23T01:49:35.566Z,71.04
2016-02-23T01:50:35.569Z,70.67
2016-02-23T01:51:35.603Z,70.86
2016-02-23T01:52:35.605Z,71.33
2016-02-23T01:53:35.639Z,71.33
2016-02-23T01:54:35.642Z,71.23
2016-02-23T01:55:35.675Z,71.33
2016-02-23T01:56:35.679Z,71.14
2016-02-23T01:57:35.697Z,71.62
2016-02-23T01:58:35.715Z,71.43
2016-02-23T01:59:35.734Z,71.52
2016-02-23T02:00:35.752Z,71.62
2016-02-23T02:01:35.754Z,71.33
2016-02-23T02:02:35.772Z,71.23
2016-02-23T02:03:35.791Z,71.62
2016-02-23T02:04:35.810Z,72
2016-02-23T02:05:35.828Z,72
2016-02-23T02:06:35.846Z,71.62
2016-02-23T02:07:35.865Z,71.62
2016-02-23T02:08:35.883Z,71.43
2016-02-23T02:09:35.916Z,72.09
2016-02-23T02:10:35.934Z,71.71
2016-02-23T02:11:35.938Z,71.81
2016-02-23T02:12:35.940Z,71.81
2016-02-23T02:13:35.959Z,71.43
2016-02-23T02:14:35.977Z,71.33
2016-02-23T02:15:35.995Z,71.43
2016-02-23T02:16:36.014Z,71.33
2016-02-23T02:17:36.032Z,71.14
2016-02-23T02:18:36.034Z,71.62
2016-02-23T02:19:36.053Z,72
2016-02-23T02:20:36.087Z,71.62
2016-02-23T02:21:36.090Z,72.38
2016-02-23T02:22:36.108Z,71.62
2016-02-23T02:23:36.126Z,71.62
2016-02-23T02:24:36.145Z,72.09
2016-02-23T02:25:36.163Z,71.9
2016-02-23T02:26:36.181Z,71.81
2016-02-23T02:27:36.200Z,71.81
2016-02-23T02:28:36.202Z,71.9
2016-02-23T02:29:36.220Z,72.28
2016-02-23T02:30:36.244Z,72.09
2016-02-23T02:31:36.262Z,72
2016-02-23T02:32:36.280Z,72.09
2016-02-23T02:33:36.299Z,72.19
2016-02-23T02:34:36.301Z,71.9
2016-02-23T02:35:36.319Z,72.09
2016-02-23T02:36:36.338Z,72.09
2016-02-23T02:37:36.356Z,72.09
2016-02-23T02:38:36.375Z,72.09
2016-02-23T02:39:36.409Z,72.09
2016-02-23T02:40:36.411Z,72.09
2016-02-23T02:41:36.430Z,72
2016-02-23T02:42:36.448Z,72.09
2016-02-23T02:43:36.450Z,72
2016-02-23T02:44:36.468Z,72.19
2016-02-23T02:45:36.487Z,71.9
2016-02-23T02:46:36.505Z,72.09
2016-02-23T02:47:36.524Z,71.9
2016-02-23T02:48:36.542Z,71.9
2016-02-23T02:49:36.560Z,72
2016-02-23T02:50:36.564Z,72.09
2016-02-23T02:51:36.581Z,71.9
2016-02-23T02:52:36.614Z,71.62
2016-02-23T02:53:36.618Z,71.62
2016-02-23T02:54:36.636Z,71.9
2016-02-23T02:55:36.655Z,71.81
2016-02-23T02:56:36.673Z,71.62
2016-02-23T02:57:36.691Z,71.62
2016-02-23T02:58:36.694Z,71.62
2016-02-23T02:59:36.728Z,72.38
2016-02-23T03:00:36.746Z,71.81
2016-02-23T03:01:36.764Z,72.09
2016-02-23T03:02:36.783Z,71.9
2016-02-23T03:03:36.786Z,72.09
2016-02-23T03:04:36.804Z,71.9
2016-02-23T03:05:36.822Z,72.09
2016-02-23T03:06:36.841Z,71.81
2016-02-23T03:07:36.859Z,72.09
2016-02-23T03:08:36.877Z,71.9
2016-02-23T03:09:36.895Z,71.71
2016-02-23T03:10:36.913Z,72
2016-02-23T03:11:36.915Z,71.62
2016-02-23T03:12:36.935Z,72
2016-02-23T03:13:36.953Z,71.62
2016-02-23T03:14:36.971Z,71.81
2016-02-23T03:15:36.990Z,71.62
2016-02-23T03:16:37.008Z,71.52
2016-02-23T03:17:37.026Z,71.62
2016-02-23T03:18:37.029Z,72.47
2016-02-23T03:19:37.047Z,72.19
2016-02-23T03:20:37.065Z,72.19
2016-02-23T03:21:40.084Z,72.28
2016-02-23T03:22:37.102Z,72.28
2016-02-23T03:23:37.121Z,71.9
2016-02-23T03:24:37.139Z,72.19
2016-02-23T03:25:37.157Z,72.19
2016-02-23T03:26:37.176Z,72.09
2016-02-23T03:27:37.178Z,72.38
2016-02-23T03:28:37.197Z,72.09
2016-02-23T03:29:37.214Z,71.71
2016-02-23T03:30:37.233Z,71.9
2016-02-23T03:31:37.251Z,71.71
2016-02-23T03:32:37.270Z,72
2016-02-23T03:33:37.288Z,72.19
2016-02-23T03:34:37.306Z,72.19
2016-02-23T03:35:37.310Z,72
2016-02-23T03:36:37.327Z,72.09
2016-02-23T03:37:37.361Z,72.38
2016-02-23T03:38:37.363Z,72.19
2016-02-23T03:39:37.382Z,71.62
2016-02-23T03:40:37.401Z,71.52
2016-02-23T03:41:37.419Z,72.09
2016-02-23T03:42:37.421Z,71.9
2016-02-23T03:43:37.440Z,71.9
2016-02-23T03:44:37.458Z,72.09
2016-02-23T03:45:37.477Z,71.9
2016-02-23T03:46:37.495Z,71.9
2016-02-23T03:47:37.512Z,72.19
2016-02-23T03:48:37.532Z,71.9
2016-02-23T03:49:37.550Z,72.28
2016-02-23T03:50:37.553Z,72.19
2016-02-23T03:51:37.571Z,71.81
2016-02-23T03:52:37.589Z,71.9
2016-02-23T03:53:37.608Z,72
2016-02-23T03:54:37.626Z,72
2016-02-23T03:55:37.644Z,71.81
2016-02-23T03:56:37.661Z,72
2016-02-23T03:57:37.697Z,71.9
2016-02-23T03:58:37.699Z,72.09
2016-02-23T03:59:37.733Z,71.9
2016-02-23T04:00:37.720Z,72.09
2016-02-23T04:01:37.754Z,72
2016-02-23T04:02:37.757Z,72
2016-02-23T04:03:37.775Z,72.19
2016-02-23T04:04:37.793Z,72.09
2016-02-23T04:05:37.811Z,71.71
2016-02-23T04:06:37.830Z,72.19
2016-02-23T04:07:37.848Z,72.09
2016-02-23T04:08:37.851Z,72.09
2016-02-23T04:09:37.869Z,72
2016-02-23T04:10:37.888Z,71.9
2016-02-23T04:11:37.906Z,71.71
2016-02-23T04:12:37.924Z,71.9
2016-02-23T04:13:37.943Z,72.09
2016-02-23T04:14:37.960Z,72
2016-02-23T04:15:37.995Z,71.9
2016-02-23T04:16:37.982Z,72
2016-02-23T04:17:38.000Z,72
2016-02-23T04:18:38.018Z,72.28
2016-02-23T04:19:38.037Z,72.47
2016-02-23T04:20:38.055Z,72.28
2016-02-23T04:21:38.073Z,72.28
2016-02-23T04:22:38.076Z,72.28
2016-02-23T04:23:38.094Z,72.47
2016-02-23T04:24:38.112Z,72.56
2016-02-23T04:25:38.131Z,72.56
2016-02-23T04:26:38.149Z,72.38
2016-02-23T04:27:38.168Z,72.66
2016-02-23T04:28:38.186Z,72.38
2016-02-23T04:29:38.204Z,71.81
2016-02-23T04:30:38.223Z,72.19
2016-02-23T04:31:38.241Z,72.19
2016-02-23T04:32:38.244Z,72.56
2016-02-23T04:33:38.262Z,72.47
2016-02-23T04:34:38.280Z,72.19
2016-02-23T04:35:38.299Z,72.28
2016-02-23T04:36:38.302Z,72.38
2016-02-23T04:37:38.335Z,72.28
2016-02-23T04:38:38.337Z,72.28
2016-02-23T04:39:38.371Z,72.28
2016-02-23T04:40:38.374Z,72.66
2016-02-23T04:41:38.393Z,72.28
2016-02-23T04:42:38.410Z,72.28
2016-02-23T04:43:38.429Z,72.19
2016-02-23T04:44:38.432Z,72.28
2016-02-23T04:45:38.451Z,72.28
2016-02-23T04:46:38.469Z,72.28
2016-02-23T04:47:38.487Z,72.66
2016-02-23T04:48:38.505Z,72.56
2016-02-23T04:49:38.524Z,72
2016-02-23T04:50:38.542Z,72
2016-02-23T04:51:38.559Z,72
2016-02-23T04:52:38.579Z,71.81
2016-02-23T04:53:38.581Z,71.9
2016-02-23T04:54:38.600Z,72
2016-02-23T04:55:38.618Z,72.09
2016-02-23T04:56:38.636Z,71.9
2016-02-23T04:57:38.655Z,71.9
2016-02-23T04:58:38.704Z,72.19
2016-02-23T04:59:38.675Z,72.09
2016-02-23T05:00:38.709Z,71.9
2016-02-23T05:01:38.711Z,72.06
2016-02-23T05:02:38.731Z,71.81
2016-02-23T05:03:38.733Z,72.09
2016-02-23T05:04:38.767Z,71.81
2016-02-23T05:05:38.785Z,71.81
2016-02-23T05:06:38.804Z,71.81
2016-02-23T05:07:38.807Z,72.15
2016-02-23T05:08:38.841Z,71.71
2016-02-23T05:09:38.843Z,71.77
2016-02-23T05:10:38.860Z,72
2016-02-23T05:11:38.880Z,71.77
2016-02-23T05:12:38.898Z,71.81
2016-02-23T05:13:38.948Z,72.15
2016-02-23T05:14:38.919Z,72.09
2016-02-23T05:15:38.953Z,71.77
2016-02-23T05:16:38.956Z,71.86
2016-02-23T05:17:38.974Z,71.96
2016-02-23T05:18:38.992Z,71.96
2016-02-23T05:19:39.010Z,72.53
2016-02-23T05:20:39.013Z,71.86
2016-02-23T05:21:39.047Z,72.06
2016-02-23T05:22:39.050Z,71.86
2016-02-23T05:23:39.084Z,71.77
2016-02-23T05:24:39.087Z,72
2016-02-23T05:25:39.136Z,71.77
2016-02-23T05:26:39.123Z,71.96
2016-02-23T05:27:39.141Z,72.15
2016-02-23T05:28:39.144Z,72.44
2016-02-23T05:29:39.162Z,72.53
2016-02-23T05:30:39.181Z,72.25
2016-02-23T05:31:39.214Z,72.15
2016-02-23T05:32:39.217Z,72.81
2016-02-23T05:33:39.220Z,72.95
2016-02-23T05:34:39.269Z,72.15
2016-02-23T05:35:39.272Z,72.44
2016-02-23T05:36:39.275Z,72.56
2016-02-23T05:37:39.294Z,71.77
2016-02-23T05:38:39.311Z,72.25
2016-02-23T05:39:39.330Z,72.15
2016-02-23T05:40:39.332Z,71.86
2016-02-23T05:41:39.352Z,71.77
2016-02-23T05:42:39.369Z,72.15
2016-02-23T05:43:39.388Z,71.96
2016-02-23T05:44:39.421Z,72.06
2016-02-23T05:45:39.424Z,71.67
2016-02-23T05:46:39.443Z,71.77
2016-02-23T05:47:39.460Z,71.86
2016-02-23T05:48:39.495Z,72.06
2016-02-23T05:49:39.482Z,72.06
2016-02-23T05:50:39.515Z,71.96
2016-02-23T05:51:39.519Z,72.15
2016-02-23T05:52:39.553Z,71.96
2016-02-23T05:53:39.555Z,72.15
2016-02-23T05:54:39.573Z,71.77
2016-02-23T05:55:39.576Z,71.96
2016-02-23T05:56:39.594Z,72.06
2016-02-23T05:57:39.456Z,72.15
2016-02-23T05:58:39.631Z,72.25
2016-02-23T05:59:39.649Z,72.25
2016-02-23T06:00:39.668Z,71.67
2016-02-23T06:01:39.686Z,72.15
2016-02-23T06:02:39.704Z,72.06
2016-02-23T06:03:39.707Z,72.06
2016-02-23T06:04:39.725Z,71.77
2016-02-23T06:05:39.744Z,71.77
2016-02-23T06:06:39.761Z,72.25
2016-02-23T06:07:40.077Z,72.44
2016-02-23T06:08:39.783Z,72.63
2016-02-23T06:09:39.802Z,72.25
2016-02-23T06:10:42.835Z,72.25
2016-02-23T06:11:39.854Z,72.06
2016-02-23T06:12:39.857Z,72.44
2016-02-23T06:13:39.874Z,72.63
2016-02-23T06:14:39.893Z,72.53
2016-02-23T06:15:39.911Z,72.15
2016-02-23T06:16:39.913Z,72.25
2016-02-23T06:17:39.933Z,72.53
2016-02-23T06:18:39.951Z,72.15
2016-02-23T06:19:40.001Z,72.34
2016-02-23T06:20:39.971Z,72.81
2016-02-23T06:21:40.006Z,72.44
2016-02-23T06:22:40.008Z,72.53
2016-02-23T06:23:40.042Z,72.53
2016-02-23T06:24:40.060Z,72.63
2016-02-23T06:25:40.078Z,72.44
2016-02-23T06:26:40.082Z,72.53
2016-02-23T06:27:40.100Z,72.25
2016-02-23T06:28:40.103Z,72.06
2016-02-23T06:29:40.120Z,72.25
2016-02-23T06:30:40.139Z,72.25
2016-02-23T06:31:40.158Z,72.25
2016-02-23T06:32:40.175Z,72.44
2016-02-23T06:33:40.178Z,72.63
2016-02-23T06:34:40.197Z,72.44
2016-02-23T06:35:40.231Z,72.53
2016-02-23T06:36:40.234Z,72.91
2016-02-23T06:37:40.252Z,72.91
2016-02-23T06:38:40.285Z,72.91
2016-02-23T06:39:40.288Z,73
2016-02-23T06:40:40.291Z,72.91
2016-02-23T06:41:40.310Z,72.34
2016-02-23T06:42:40.327Z,72.81
2016-02-23T06:43:40.346Z,72.72
2016-02-23T06:44:40.364Z,72.81
2016-02-23T06:45:40.382Z,72.06
2016-02-23T06:46:40.401Z,72.28
2016-02-23T06:47:40.404Z,72.25
2016-02-23T06:48:40.421Z,72.25
2016-02-23T06:49:40.440Z,72.15
2016-02-23T06:50:40.459Z,72.25
2016-02-23T06:51:40.492Z,72.34
2016-02-23T06:52:40.479Z,72.72
2016-02-23T06:53:40.513Z,72.75
2016-02-23T06:54:40.531Z,72.75
2016-02-23T06:55:40.535Z,72.15
2016-02-23T06:56:40.553Z,72.19
2016-02-23T06:57:40.570Z,72.25
2016-02-23T06:58:40.621Z,72.06
2016-02-23T06:59:40.608Z,72.25
2016-02-23T07:00:40.625Z,72.25
2016-02-23T07:01:40.628Z,72.15
2016-02-23T07:02:40.662Z,72.09
2016-02-23T07:03:40.665Z,72.15
2016-02-23T07:04:40.684Z,72.44
2016-02-23T07:05:40.702Z,72.81
2016-02-23T07:06:40.720Z,72.72
2016-02-23T07:07:40.722Z,72.38
2016-02-23T07:08:40.742Z,72.15
2016-02-23T07:09:40.760Z,72.53
2016-02-23T07:10:40.793Z,72.25
2016-02-23T07:11:40.811Z,72.15
2016-02-23T07:12:40.655Z,72.19
2016-02-23T07:13:40.830Z,72.25
2016-02-23T07:14:40.849Z,72.25
2016-02-23T07:15:40.851Z,72.38
2016-02-23T07:16:40.869Z,72.28
2016-02-23T07:17:40.888Z,72.28
2016-02-23T07:18:40.906Z,72.28
2016-02-23T07:19:40.909Z,72.25
2016-02-23T07:20:40.927Z,72.38
2016-02-23T07:21:40.960Z,72.19
2016-02-23T07:22:40.964Z,72.28
2016-02-23T07:23:40.982Z,72.28
2016-02-23T07:24:41.000Z,72.19
2016-02-23T07:25:41.018Z,72.47
2016-02-23T07:26:41.037Z,72.66
2016-02-23T07:27:41.055Z,72.66
2016-02-23T07:28:41.073Z,72.38
2016-02-23T07:29:41.092Z,72.66
2016-02-23T07:30:41.095Z,72.38
2016-02-23T07:31:41.113Z,72.47
2016-02-23T07:32:41.132Z,72.47
2016-02-23T07:33:41.150Z,72.47
2016-02-23T07:34:41.152Z,72.47
2016-02-23T07:35:41.187Z,72.47
2016-02-23T07:36:41.189Z,72.47
2016-02-23T07:37:41.223Z,72.19
2016-02-23T07:38:41.225Z,72.38
2016-02-23T07:39:41.244Z,72.28
2016-02-23T07:40:41.262Z,72.09
2016-02-23T07:41:41.281Z,72.19
2016-02-23T07:42:41.299Z,72.28
2016-02-23T07:43:41.302Z,72.19
2016-02-23T07:44:41.320Z,72.56
2016-02-23T07:45:41.338Z,72.38
2016-02-23T07:46:41.356Z,72.56
2016-02-23T07:47:41.390Z,72.28
2016-02-23T07:48:41.378Z,72.56
2016-02-23T07:49:41.411Z,72.47
2016-02-23T07:50:41.414Z,72.47
2016-02-23T07:51:41.432Z,72.47
2016-02-23T07:52:41.451Z,72.28
2016-02-23T07:53:41.469Z,72.56
2016-02-23T07:54:41.487Z,72.47
2016-02-23T07:55:41.506Z,72.47
2016-02-23T07:56:41.509Z,72.47
2016-02-23T07:57:41.527Z,72.66
2016-02-23T07:58:41.560Z,72.66
2016-02-23T07:59:41.563Z,72.28
2016-02-23T08:00:41.582Z,72.47
2016-02-23T08:01:41.600Z,72.47
2016-02-23T08:02:41.603Z,72.47
2016-02-23T08:03:41.637Z,72.19
2016-02-23T08:04:41.639Z,72.28
2016-02-23T08:05:41.688Z,72.28
2016-02-23T08:06:41.660Z,72.28
2016-02-23T08:07:41.694Z,72.28
2016-02-23T08:08:41.712Z,72.19
2016-02-23T08:09:41.731Z,72.38
2016-02-23T08:10:41.749Z,72.19
2016-02-23T08:11:41.767Z,72.28
2016-02-23T08:12:41.802Z,72.47
2016-02-23T08:13:41.788Z,72.28
2016-02-23T08:14:41.807Z,72.47
2016-02-23T08:15:41.824Z,72.47
2016-02-23T08:16:41.843Z,72.47
2016-02-23T08:17:41.861Z,72.56
2016-02-23T08:18:41.880Z,72.56
2016-02-23T08:19:41.883Z,72.47
2016-02-23T08:20:41.901Z,72.56
2016-02-23T08:21:41.919Z,72.51
2016-02-23T08:22:41.938Z,72.19
2016-02-23T08:23:41.971Z,72.28
2016-02-23T08:24:41.974Z,72
2016-02-23T08:25:41.993Z,72
2016-02-23T08:26:41.995Z,71.84
2016-02-23T08:27:42.029Z,71.9
2016-02-23T08:28:42.031Z,72.13
2016-02-23T08:29:42.051Z,72.22
2016-02-23T08:30:42.115Z,71.94
2016-02-23T08:31:42.087Z,71.94
2016-02-23T08:32:42.105Z,72.13
2016-02-23T08:33:42.124Z,72.03
2016-02-23T08:34:42.126Z,71.94
2016-02-23T08:35:42.144Z,72.03
2016-02-23T08:36:42.163Z,72.13
2016-02-23T08:37:42.181Z,71.94
2016-02-23T08:38:42.200Z,72.03
2016-02-23T08:39:42.217Z,72.03
2016-02-23T08:40:42.236Z,72.03
2016-02-23T08:41:42.255Z,72.22
2016-02-23T08:42:42.258Z,71.66
2016-02-23T08:43:42.275Z,71.84
2016-02-23T08:44:42.294Z,72.13
2016-02-23T08:45:42.312Z,71.66
2016-02-23T08:46:42.330Z,71.84
2016-02-23T08:47:42.349Z,71.84
2016-02-23T08:48:42.367Z,71.66
2016-02-23T08:49:42.385Z,71.66
2016-02-23T08:50:42.404Z,71.66
2016-02-23T08:51:42.421Z,71.66
2016-02-23T08:52:42.424Z,71.56
2016-02-23T08:53:42.443Z,71.56
2016-02-23T08:54:42.477Z,71.66
2016-02-23T08:55:42.479Z,71.66
2016-02-23T08:56:42.498Z,71.66
2016-02-23T08:57:42.516Z,71.37
2016-02-23T08:58:42.534Z,71.66
2016-02-23T08:59:42.537Z,71.66
2016-02-23T09:00:42.556Z,71.84
2016-02-23T09:01:42.578Z,71.75
2016-02-23T09:02:42.597Z,71.66
2016-02-23T09:03:42.615Z,71.75
2016-02-23T09:04:42.634Z,71.84
2016-02-23T09:05:42.641Z,71.66
2016-02-23T09:06:42.659Z,71.66
2016-02-23T09:07:42.694Z,71.27
2016-02-23T09:08:42.697Z,71.37
2016-02-23T09:09:42.714Z,71.08
2016-02-23T09:10:42.733Z,71.46
2016-02-23T09:11:42.752Z,71.46
2016-02-23T09:12:42.770Z,71.08
2016-02-23T09:13:42.788Z,71.08
2016-02-23T09:14:42.791Z,70.7
2016-02-23T09:15:42.809Z,71.08
2016-02-23T09:16:42.827Z,71.18
2016-02-23T09:17:42.846Z,71.18
2016-02-23T09:18:42.864Z,71.12
2016-02-23T09:19:42.882Z,71.08
2016-02-23T09:20:42.901Z,71.18
2016-02-23T09:21:42.919Z,71.12
2016-02-23T09:22:42.921Z,71.02
2016-02-23T09:23:42.955Z,71.12
2016-02-23T09:24:42.958Z,71.22
2016-02-23T09:25:42.993Z,71.02
2016-02-23T09:26:42.995Z,71.18
2016-02-23T09:27:43.013Z,71.02
2016-02-23T09:28:42.870Z,71.12
2016-02-23T09:29:43.047Z,71.12
2016-02-23T09:30:43.053Z,71.12
2016-02-23T09:31:43.043Z,70.74
2016-02-23T09:32:43.048Z,70.64
2016-02-23T09:33:43.058Z,70.54
2016-02-23T09:34:43.056Z,70.45
2016-02-23T09:35:43.085Z,70.54
2016-02-23T09:36:43.082Z,70.45
2016-02-23T09:37:43.113Z,70.45
2016-02-23T09:38:43.112Z,70.74
2016-02-23T09:39:43.144Z,70.45
2016-02-23T09:40:43.145Z,70.64
2016-02-23T09:41:43.160Z,70.64
2016-02-23T09:42:43.178Z,70.74
2016-02-23T09:43:43.195Z,70.83
2016-02-23T09:44:43.197Z,70.64
2016-02-23T09:45:43.262Z,70.54
2016-02-23T09:46:43.249Z,70.36
2016-02-23T09:47:43.266Z,70.64
2016-02-23T09:48:43.268Z,70.17
2016-02-23T09:49:43.287Z,70.45
2016-02-23T09:50:43.320Z,70.36
2016-02-23T09:51:43.322Z,70.36
2016-02-23T09:52:43.341Z,70.17
2016-02-23T09:53:43.358Z,70.74
2016-02-23T09:54:43.377Z,69.98
2016-02-23T09:55:43.396Z,69.79
2016-02-23T09:56:43.413Z,69.98
2016-02-23T09:57:43.432Z,69.88
2016-02-23T09:58:43.466Z,70.07
2016-02-23T09:59:43.484Z,70.07
2016-02-23T10:00:43.471Z,70.26
2016-02-23T10:01:43.490Z,70.26
2016-02-23T10:02:43.508Z,70.07
2016-02-23T10:03:43.526Z,70.26
2016-02-23T10:04:43.545Z,69.79
2016-02-23T10:05:43.563Z,69.5
2016-02-23T10:06:43.581Z,69.98
2016-02-23T10:07:43.599Z,69.21
2016-02-23T10:08:43.618Z,69.6
2016-02-23T10:09:43.620Z,69.69
2016-02-23T10:10:43.639Z,69.25
2016-02-23T10:11:43.673Z,69.69
2016-02-23T10:12:43.691Z,69.15
2016-02-23T10:13:43.709Z,69.06
2016-02-23T10:14:43.728Z,68.87
2016-02-23T10:15:43.746Z,68.87
2016-02-23T10:16:43.748Z,69.25
2016-02-23T10:17:43.767Z,68.96
2016-02-23T10:18:43.786Z,69.25
2016-02-23T10:19:43.803Z,69.15
2016-02-23T10:20:43.838Z,69.92
2016-02-23T10:21:43.840Z,69.06
2016-02-23T10:22:43.875Z,68.96
2016-02-23T10:23:43.877Z,69.06
2016-02-23T10:24:43.895Z,69.25
2016-02-23T10:25:43.913Z,68.96
2016-02-23T10:26:43.963Z,69.35
2016-02-23T10:27:43.935Z,68.77
2016-02-23T10:28:43.952Z,68.77
2016-02-23T10:29:43.971Z,69.35
2016-02-23T10:30:43.990Z,68.49
2016-02-23T10:31:44.007Z,68.49
2016-02-23T10:32:44.026Z,68.3
2016-02-23T10:33:44.060Z,68.87
2016-02-23T10:34:44.063Z,68.68
2016-02-23T10:35:44.081Z,68.59
2016-02-23T10:36:44.115Z,68.3
2016-02-23T10:37:44.118Z,68.77
2016-02-23T10:38:44.137Z,68.96
2016-02-23T10:39:44.154Z,68.49
2016-02-23T10:40:44.173Z,68.3
2016-02-23T10:41:44.176Z,68.77
2016-02-23T10:42:44.209Z,68.4
2016-02-23T10:43:44.228Z,68.49
2016-02-23T10:44:44.245Z,68.11
2016-02-23T10:45:44.264Z,67.92
2016-02-23T10:46:44.283Z,67.92
2016-02-23T10:47:44.317Z,68.21
2016-02-23T10:48:44.319Z,68.11
2016-02-23T10:49:44.337Z,68.21
2016-02-23T10:50:44.340Z,68.21
2016-02-23T10:51:44.374Z,68.11
2016-02-23T10:52:44.377Z,68.01
2016-02-23T10:53:44.395Z,67.82
2016-02-23T10:54:44.444Z,68.01
2016-02-23T10:55:44.432Z,68.01
2016-02-23T10:56:44.450Z,67.92
2016-02-23T10:57:44.484Z,68.3
2016-02-23T10:58:44.487Z,67.73
2016-02-23T10:59:44.521Z,67.63
2016-02-23T11:00:44.523Z,67.73
2016-02-23T11:01:44.558Z,67.35
2016-02-23T11:02:44.576Z,67.73
2016-02-23T11:03:44.593Z,67.25
2016-02-23T11:04:44.596Z,67.63
2016-02-23T11:05:44.615Z,67.54
2016-02-23T11:06:44.633Z,67.73
2016-02-23T11:07:44.652Z,67.54
2016-02-23T11:08:44.670Z,67.73
2016-02-23T11:09:44.688Z,67.73
2016-02-23T11:10:44.707Z,67.76
2016-02-23T11:11:44.726Z,67.1
2016-02-23T11:12:44.743Z,67.1
2016-02-23T11:13:44.777Z,67.1
2016-02-23T11:14:44.764Z,66.91
2016-02-23T11:15:44.782Z,66.53
2016-02-23T11:16:44.816Z,67.19
2016-02-23T11:17:44.819Z,66.72
2016-02-23T11:18:44.837Z,66.43
2016-02-23T11:19:44.856Z,66.24
2016-02-23T11:20:44.889Z,66.62
2016-02-23T11:21:44.892Z,66.43
2016-02-23T11:22:44.911Z,66.33
2016-02-23T11:23:44.944Z,66.43
2016-02-23T11:24:44.947Z,66.43
2016-02-23T11:25:44.966Z,66.14
2016-02-23T11:26:44.984Z,66.24
2016-02-23T11:27:45.002Z,66.24
2016-02-23T11:28:45.036Z,65.86
2016-02-23T11:29:45.055Z,65.77
2016-02-23T11:30:45.057Z,65.1
2016-02-23T11:31:45.092Z,65.77
2016-02-23T11:32:45.094Z,65.67
2016-02-23T11:33:45.128Z,65.48
2016-02-23T11:34:45.130Z,65.29
2016-02-23T11:35:45.165Z,64.53
2016-02-23T11:36:45.167Z,64.43
2016-02-23T11:37:45.186Z,64.72
2016-02-23T11:38:45.204Z,64.53
2016-02-23T11:39:45.238Z,64.34
2016-02-23T11:40:45.256Z,64.43
2016-02-23T11:41:45.259Z,64.9
2016-02-23T11:42:45.276Z,64.24
2016-02-23T11:43:45.295Z,64.62
2016-02-23T11:44:45.315Z,64.24
2016-02-23T11:45:45.332Z,64.53
2016-02-23T11:46:45.366Z,64.9
2016-02-23T11:47:45.368Z,64.43
2016-02-23T11:48:45.387Z,63.76
2016-02-23T11:49:45.405Z,63.96
2016-02-23T11:50:45.423Z,63.86
2016-02-23T11:51:45.441Z,64.15
2016-02-23T11:52:45.461Z,64.05
2016-02-23T11:53:45.511Z,63.86
2016-02-23T11:54:45.499Z,63.32
2016-02-23T11:55:45.519Z,63.51
2016-02-23T11:56:45.576Z,63.42
2016-02-23T11:57:45.548Z,63.51
2016-02-23T11:58:45.598Z,63.04
2016-02-23T11:59:45.600Z,63.04
2016-02-23T12:00:51.915Z,62.75
2016-02-23T12:01:45.621Z,62.85
2016-02-23T12:02:45.640Z,62.94
2016-02-23T12:03:45.658Z,62.85
2016-02-23T12:04:45.676Z,62.56
2016-02-23T12:05:45.695Z,62.37
2016-02-23T12:06:45.965Z,62.65
2016-02-23T12:07:45.733Z,61.99
2016-02-23T12:08:45.752Z,61.93
2016-02-23T12:09:45.769Z,61.93
2016-02-23T12:10:45.803Z,61.25
2016-02-23T12:11:45.805Z,60.46
2016-02-23T12:12:45.824Z,60.49
2016-02-23T12:13:45.843Z,60.4
2016-02-23T12:14:45.860Z,59.83
2016-02-23T12:15:45.879Z,59.35
2016-02-23T12:16:45.898Z,59.54
2016-02-23T12:17:45.915Z,59.35
2016-02-23T12:18:45.450Z,59.45
2016-02-23T12:19:45.969Z,58.97
2016-02-23T12:20:45.971Z,58.97
2016-02-23T12:21:45.990Z,59.06
2016-02-23T12:22:46.007Z,59.45
2016-02-23T12:23:46.026Z,59.92
2016-02-23T12:24:46.059Z,59.45
2016-02-23T12:25:46.079Z,59.54
2016-02-23T12:26:46.082Z,59.54
2016-02-23T12:27:46.115Z,58.97
2016-02-23T12:28:46.134Z,58.87
2016-02-23T12:29:46.151Z,58.87
2016-02-23T12:30:46.170Z,58.87
2016-02-23T12:31:46.173Z,58.87
2016-02-23T12:32:46.192Z,58.69
2016-02-23T12:33:46.272Z,58.87
2016-02-23T12:34:46.243Z,58.69
2016-02-23T12:35:46.277Z,58.69
2016-02-23T12:36:46.280Z,58.97
2016-02-23T12:37:46.313Z,58.4
2016-02-23T12:38:46.317Z,58.4
2016-02-23T12:39:46.351Z,58.28
2016-02-23T12:40:46.353Z,57.89
2016-02-23T12:41:46.372Z,57.99
2016-02-23T12:42:46.389Z,57.89
2016-02-23T12:43:46.408Z,57.89
2016-02-23T12:44:46.427Z,57.89
2016-02-23T12:45:46.444Z,57.6
2016-02-23T12:46:46.462Z,57.89
2016-02-23T12:47:46.482Z,57.99
2016-02-23T12:48:46.500Z,58.56
2016-02-23T12:49:46.518Z,58.56
2016-02-23T12:50:46.536Z,58.94
2016-02-23T12:51:46.554Z,58.94
2016-02-23T12:52:46.589Z,59.32
2016-02-23T12:53:46.591Z,58.94
2016-02-23T12:54:46.610Z,59.42
2016-02-23T12:55:46.643Z,58.84
2016-02-23T12:56:46.646Z,58.75
2016-02-23T12:57:46.665Z,59.42